Minturn, Colorado
Current Conditions -  °F | °C
As of 5:37 PM on Friday 24 Oct 2014 (Local Time) from KCCU Reporting Station
Clear Clear  
Wind Chill: 50°   Ceiling: Unl
Heat Index: 50°   Visibility: 10mi
Dew Point: 14°   Wind: 15mph
Humidity: 24%   Direction: 260°W
Pressure: 30.64"   Gusts: NA
Location:  39.59°N, 106.43°W
Report Text: KCCU 242337Z AUTO 26013KT 10SM CLR 10/M10 A3064 RMK AO2
Loading
Personal Weather Stations






























Interactive Weather Map
Tropical Storm Tracking
New forecast layout! Learn more

10-Day Weather Forecast

Advertisements
Track Severe Weather on mobile